»·PEaware :: N900EH KSNA-KVNY

N900EH :: KSNA-KVNY

FLIGHT INFORMATION

Flight Status: Arrived
Operator: Privately registered:
United States
More flights under this callsign
Pilot: Hans Inge E. (22653)
Aircraft: SOCATA TBM-900
(TBM9)
More flights by this aircraft type
Origin: KSNA John Wayne-Orange Co
United States
Destination: KVNY Van Nuys
United States
More flights between these airports :: More routes between these airports
Route: +SLI SLI341 ELMOO V186 VNY
File this flight plan on PilotEdge
Remarks: CSTP4
Altitude:
(Current/Filed)
6,000ft
Speed:
(Current/Filed)
230kts
Departed: 10-Feb-20 11:53 AM
Arrived: 10-Feb-20 12:13 PM
Distance/Time
Traveled:
45nm/0:20
Distance/Time
To Go:
Arrived

Flight Plot

Page will automatically refresh every two minutes.

Flight plan parsing failed; only flown route is shown


Map Options




Map Legend


Flown Route
Filed Route
Departure Airport
Arrival Airport
Navaid (VOR, NDB)
Fix

Horizontal Profiles

Position Reports

Time Latitude Longitude Heading Altitude Ground
Speed
10-Feb-20 11:03 33.675610 -117.871101 39 59ft 0kts
10-Feb-20 11:04 33.675610 -117.871101 39 59ft 0kts
10-Feb-20 11:05 33.675610 -117.871101 39 59ft 0kts
10-Feb-20 11:06 33.675610 -117.871101 39 59ft 0kts
10-Feb-20 11:07 33.675610 -117.871101 39 59ft 0kts
10-Feb-20 11:08 33.675610 -117.871101 39 59ft 0kts
10-Feb-20 11:09 33.675610 -117.871101 39 59ft 0kts
10-Feb-20 11:10 33.675610 -117.871101 39 59ft 0kts
10-Feb-20 11:11 33.675610 -117.871101 39 59ft 0kts
10-Feb-20 11:12 33.675610 -117.871101 39 59ft 0kts
10-Feb-20 11:13 33.675610 -117.871101 39 59ft 0kts
10-Feb-20 11:14 33.675610 -117.871101 39 59ft 0kts
10-Feb-20 11:15 33.675610 -117.871101 39 59ft 0kts
10-Feb-20 11:16 33.675610 -117.871101 39 59ft 0kts
10-Feb-20 11:17 33.675610 -117.871101 39 59ft 0kts
10-Feb-20 11:18 33.675610 -117.871101 39 59ft 0kts
10-Feb-20 11:19 33.675610 -117.871101 39 59ft 0kts
10-Feb-20 11:20 33.675610 -117.871101 39 59ft 0kts
10-Feb-20 11:21 33.675610 -117.871101 39 59ft 0kts
10-Feb-20 11:22 33.675610 -117.871101 39 59ft 0kts
10-Feb-20 11:23 33.675610 -117.871101 39 59ft 0kts
10-Feb-20 11:24 33.675610 -117.871101 39 59ft 0kts
10-Feb-20 11:25 33.675610 -117.871101 39 59ft 0kts
10-Feb-20 11:26 33.675610 -117.871101 39 59ft 0kts
10-Feb-20 11:27 33.675610 -117.871101 39 59ft 0kts
10-Feb-20 11:28 33.675610 -117.871101 39 59ft 0kts
10-Feb-20 11:29 33.675610 -117.871101 39 59ft 0kts
10-Feb-20 11:30 33.675610 -117.871101 39 59ft 0kts
10-Feb-20 11:31 33.675610 -117.871101 39 59ft 0kts
10-Feb-20 11:32 33.675610 -117.871101 39 59ft 0kts
10-Feb-20 11:33 33.675610 -117.871101 39 59ft 0kts
10-Feb-20 11:34 33.675610 -117.871101 39 59ft 0kts
10-Feb-20 11:35 33.675610 -117.871101 39 59ft 0kts
10-Feb-20 11:36 33.675610 -117.871101 39 59ft 0kts
10-Feb-20 11:37 33.675610 -117.871101 39 59ft 0kts
10-Feb-20 11:38 33.675610 -117.871101 39 59ft 0kts
10-Feb-20 11:39 33.675610 -117.871101 39 59ft 0kts
10-Feb-20 11:40 33.675610 -117.871101 39 59ft 0kts
10-Feb-20 11:41 33.675610 -117.871101 39 59ft 0kts
10-Feb-20 11:42 33.675610 -117.871101 39 59ft 0kts
10-Feb-20 11:43 33.675617 -117.871093 41 59ft 0kts
10-Feb-20 11:44 33.675641 -117.871044 74 59ft 0kts
10-Feb-20 11:45 33.675642 -117.871037 81 59ft 0kts
10-Feb-20 11:46 33.676342 -117.869921 28 59ft 13kts
10-Feb-20 11:47 33.679684 -117.867946 14 59ft 12kts
10-Feb-20 11:48 33.681213 -117.866444 120 59ft 0kts
10-Feb-20 11:49 33.681200 -117.866418 119 59ft 0kts
10-Feb-20 11:50 33.681200 -117.866418 119 59ft 0kts
10-Feb-20 11:51 33.681200 -117.866418 119 59ft 0kts
10-Feb-20 11:52 33.675383 -117.869048 207 65ft 116kts
10-Feb-20 11:53 33.639916 -117.893786 213 1672ft 178kts
10-Feb-20 11:54 33.594668 -117.914343 185 3165ft 176kts
10-Feb-20 11:55 33.578580 -117.959245 316 4085ft 205kts
10-Feb-20 11:56 33.629105 -117.991516 331 5510ft 211kts
10-Feb-20 11:57 33.685821 -118.026378 333 6010ft 248kts
10-Feb-20 11:58 33.742748 -118.061598 333 6006ft 258kts
10-Feb-20 11:59 33.809445 -118.087511 351 5996ft 235kts
10-Feb-20 12:00 33.868504 -118.085219 1 5989ft 219kts
10-Feb-20 12:01 33.935054 -118.083961 5 5998ft 251kts
10-Feb-20 12:02 34.004965 -118.082820 5 5990ft 244kts
10-Feb-20 12:03 34.071016 -118.081736 6 5985ft 224kts
10-Feb-20 12:04 34.107310 -118.108534 289 6015ft 232kts
10-Feb-20 12:05 34.123701 -118.179054 252 5747ft 202kts
10-Feb-20 12:06 34.109516 -118.242133 273 5578ft 240kts
10-Feb-20 12:07 34.107493 -118.323231 273 5291ft 244kts
10-Feb-20 12:08 34.105996 -118.400209 282 4583ft 238kts
10-Feb-20 12:09 34.124341 -118.466679 307 2818ft 188kts
10-Feb-20 12:10 34.157191 -118.486192 1 1700ft 137kts
10-Feb-20 12:11 34.184721 -118.488206 4 1075ft 80kts
10-Feb-20 12:12 34.204255 -118.489857 356 805ft 26kts
10-Feb-20 12:13 34.206583 -118.491022 270 805ft 0kts
10-Feb-20 12:14 34.206788 -118.491260 352 805ft 8kts
10-Feb-20 12:16 34.212005 -118.491745 355 805ft 22kts
10-Feb-20 12:17 34.216850 -118.492618 309 805ft 0kts
10-Feb-20 12:18 34.217254 -118.496477 262 805ft 9kts
10-Feb-20 12:19 34.215045 -118.498438 235 805ft 0kts
10-Feb-20 12:20 34.215045 -118.498438 235 805ft 0kts
10-Feb-20 12:21 34.215045 -118.498438 235 805ft 0kts
10-Feb-20 12:22 34.215045 -118.498438 235 805ft 0kts

Navigation Log

Ident Type
Flight plan parsing failed, navigation log unavailable